Observation data for Saint Lawrence on 05/14/2018      Previous  Date  Next       Current Mesonet Observations  Soil Data  Daily Summary Page  Observations in Plain Language
KST1 140500Z 17014KT 25/16 A2994 RMK A01 T02450162  RH  061%=      5-min Rain = 0
KST1 140505Z 17015KT 25/16 A2994 RMK A01 T02450162  RH  061%=      5-min Rain = 0
KST1 140510Z 17014KT 24/16 A2994 RMK A01 T02440162  RH  061%=      5-min Rain = 0
KST1 140515Z 17015KT 24/16 A2994 RMK A01 T02440162  RH  062%=      5-min Rain = 0
KST1 140520Z 17014KT 24/16 A2994 RMK A01 T02430162  RH  062%=      5-min Rain = 0
KST1 140525Z 17014KT 24/16 A2994 RMK A01 T02420162  RH  062%=      5-min Rain = 0
KST1 140530Z 17014KT 24/16 A2994 RMK A01 T02410162  RH  063%=      5-min Rain = 0
KST1 140535Z 17013KT 24/16 A2993 RMK A01 T02410162  RH  063%=      5-min Rain = 0
KST1 140540Z 17013KT 24/16 A2993 RMK A01 T02400162  RH  063%=      5-min Rain = 0
KST1 140545Z 17013KT 24/16 A2994 RMK A01 T02400162  RH  063%=      5-min Rain = 0
KST1 140550Z 16011KT 24/16 A2994 RMK A01 T02380162  RH  064%=      5-min Rain = 0
KST1 140555Z 16010KT 24/16 A2993 RMK A01 T02370162  RH  064%=      5-min Rain = 0
KST1 140600Z 16010KT 24/16 A2994 RMK A01 T02360162  RH  065%=      5-min Rain = 0
KST1 140605Z 16010KT 24/16 A2994 RMK A01 T02350162  RH  065%=      5-min Rain = 0
KST1 140610Z 17009KT 24/16 A2994 RMK A01 T02350162  RH  065%=      5-min Rain = 0
KST1 140615Z 17010KT 23/16 A2994 RMK A01 T02340162  RH  066%=      5-min Rain = 0
KST1 140620Z 17009KT 23/16 A2993 RMK A01 T02330162  RH  066%=      5-min Rain = 0
KST1 140625Z 17008KT 23/16 A2993 RMK A01 T02320162  RH  066%=      5-min Rain = 0
KST1 140630Z 17008KT 23/16 A2993 RMK A01 T02310162  RH  067%=      5-min Rain = 0
KST1 140635Z 17009KT 23/16 A2993 RMK A01 T02300162  RH  067%=      5-min Rain = 0
KST1 140640Z 17009KT 23/16 A2993 RMK A01 T02300163  RH  067%=      5-min Rain = 0
KST1 140645Z 17009KT 23/16 A2993 RMK A01 T02300163  RH  067%=      5-min Rain = 0
KST1 140650Z 17009KT 23/16 A2993 RMK A01 T02290163  RH  068%=      5-min Rain = 0
KST1 140655Z 17010KT 23/16 A2993 RMK A01 T02290163  RH  068%=      5-min Rain = 0
KST1 140700Z 17009KT 23/16 A2993 RMK A01 T02280163  RH  068%=      5-min Rain = 0
KST1 140705Z 17009KT 23/16 A2993 RMK A01 T02280163  RH  068%=      5-min Rain = 0
KST1 140710Z 17009KT 23/16 A2993 RMK A01 T02270163  RH  069%=      5-min Rain = 0
KST1 140715Z 17010KT 23/16 A2993 RMK A01 T02270163  RH  069%=      5-min Rain = 0
KST1 140720Z 17009KT 23/16 A2993 RMK A01 T02270163  RH  069%=      5-min Rain = 0
KST1 140725Z 17009KT 23/16 A2993 RMK A01 T02270164  RH  069%=      5-min Rain = 0
KST1 140730Z 16009KT 23/16 A2993 RMK A01 T02260163  RH  069%=      5-min Rain = 0
KST1 140735Z 16009KT 23/16 A2993 RMK A01 T02260163  RH  069%=      5-min Rain = 0
KST1 140740Z 16008KT 23/16 A2993 RMK A01 T02250163  RH  069%=      5-min Rain = 0
KST1 140745Z 16008KT 22/16 A2993 RMK A01 T02240162  RH  070%=      5-min Rain = 0
KST1 140750Z 16009KT 22/16 A2993 RMK A01 T02230162  RH  070%=      5-min Rain = 0
KST1 140755Z 16009KT 22/16 A2993 RMK A01 T02230163  RH  070%=      5-min Rain = 0
KST1 140800Z 15009KT 22/16 A2992 RMK A01 T02230163  RH  071%=      5-min Rain = 0
KST1 140805Z 16009KT 22/16 A2992 RMK A01 T02220163  RH  071%=      5-min Rain = 0
KST1 140810Z 16009KT 22/16 A2992 RMK A01 T02220163  RH  071%=      5-min Rain = 0
KST1 140815Z 16009KT 22/16 A2992 RMK A01 T02220163  RH  071%=      5-min Rain = 0
KST1 140820Z 15009KT 22/16 A2992 RMK A01 T02210163  RH  071%=      5-min Rain = 0
KST1 140825Z 15009KT 22/16 A2992 RMK A01 T02180162  RH  072%=      5-min Rain = 0
KST1 140830Z 15009KT 22/16 A2992 RMK A01 T02170162  RH  072%=      5-min Rain = 0
KST1 140835Z 15009KT 22/16 A2992 RMK A01 T02170162  RH  072%=      5-min Rain = 0
KST1 140840Z 15009KT 22/16 A2992 RMK A01 T02160162  RH  073%=      5-min Rain = 0
KST1 140845Z 14010KT 22/16 A2992 RMK A01 T02160162  RH  073%=      5-min Rain = 0
KST1 140850Z 14009KT 22/16 A2992 RMK A01 T02150161  RH  073%=      5-min Rain = 0
KST1 140855Z 14009KT 21/16 A2992 RMK A01 T02130161  RH  074%=      5-min Rain = 0
KST1 140900Z 15010KT 21/16 A2992 RMK A01 T02130161  RH  074%=      5-min Rain = 0
KST1 140905Z 15009KT 21/16 A2993 RMK A01 T02130161  RH  074%=      5-min Rain = 0
KST1 140910Z 15009KT 21/16 A2993 RMK A01 T02120160  RH  074%=      5-min Rain = 0
KST1 140915Z 15010KT 21/16 A2993 RMK A01 T02110160  RH  074%=      5-min Rain = 0
KST1 140920Z 15010KT 21/16 A2993 RMK A01 T02130161  RH  074%=      5-min Rain = 0
KST1 140925Z 15009KT 21/16 A2993 RMK A01 T02120160  RH  074%=      5-min Rain = 0
KST1 140930Z 14008KT 21/16 A2993 RMK A01 T02100160  RH  075%=      5-min Rain = 0
KST1 140935Z 13008KT 21/16 A2993 RMK A01 T02080159  RH  075%=      5-min Rain = 0
KST1 140940Z 13008KT 21/16 A2993 RMK A01 T02050157  RH  076%=      5-min Rain = 0
KST1 140945Z 13008KT 20/16 A2993 RMK A01 T02030156  RH  076%=      5-min Rain = 0
KST1 140950Z 13008KT 20/16 A2993 RMK A01 T02030157  RH  077%=      5-min Rain = 0
KST1 140955Z 14008KT 20/16 A2993 RMK A01 T02030157  RH  077%=      5-min Rain = 0
KST1 141000Z 14008KT 20/16 A2993 RMK A01 T02020157  RH  077%=      5-min Rain = 0
KST1 141005Z 14008KT 20/16 A2993 RMK A01 T02030158  RH  077%=      5-min Rain = 0
KST1 141010Z 14008KT 20/16 A2994 RMK A01 T02030159  RH  078%=      5-min Rain = 0
KST1 141015Z 14008KT 20/16 A2994 RMK A01 T02030160  RH  078%=      5-min Rain = 0
KST1 141020Z 15009KT 21/16 A2994 RMK A01 T02050163  RH  079%=      5-min Rain = 0
KST1 141025Z 15012KT 21/17 A2994 RMK A01 T02100169  RH  079%=      5-min Rain = 0
KST1 141030Z 15012KT 21/17 A2994 RMK A01 T02120172  RH  080%=      5-min Rain = 0
KST1 141035Z 15011KT 21/17 A2994 RMK A01 T02120173  RH  080%=      5-min Rain = 0
KST1 141040Z 15011KT 21/17 A2995 RMK A01 T02120174  RH  081%=      5-min Rain = 0
KST1 141045Z 14010KT 21/17 A2995 RMK A01 T02120174  RH  081%=      5-min Rain = 0
KST1 141050Z 14011KT 21/18 A2995 RMK A01 T02130176  RH  081%=      5-min Rain = 0
KST1 141055Z 14011KT 21/18 A2995 RMK A01 T02140177  RH  081%=      5-min Rain = 0
KST1 141100Z 15011KT 22/18 A2995 RMK A01 T02160178  RH  081%=      5-min Rain = 0
KST1 141105Z 15011KT 22/18 A2995 RMK A01 T02170179  RH  081%=      5-min Rain = 0
KST1 141110Z 15012KT 22/18 A2995 RMK A01 T02180180  RH  081%=      5-min Rain = 0
KST1 141115Z 15012KT 22/18 A2995 RMK A01 T02190181  RH  081%=      5-min Rain = 0
KST1 141120Z 16014KT 22/18 A2995 RMK A01 T02210182  RH  081%=      5-min Rain = 0
KST1 141125Z 15012KT 22/18 A2995 RMK A01 T02210182  RH  081%=      5-min Rain = 0
KST1 141130Z 15011KT 22/18 A2995 RMK A01 T02200182  RH  081%=      5-min Rain = 0
KST1 141135Z 15012KT 22/18 A2995 RMK A01 T02200183  RH  081%=      5-min Rain = 0
KST1 141140Z 16013KT 22/18 A2995 RMK A01 T02210183  RH  081%=      5-min Rain = 0
KST1 141145Z 16013KT 22/18 A2996 RMK A01 T02220183  RH  081%=      5-min Rain = 0
KST1 141150Z 16014KT 22/18 A2996 RMK A01 T02230184  RH  080%=      5-min Rain = 0
KST1 141155Z 16014KT 22/18 A2995 RMK A01 T02240184  RH  080%=      5-min Rain = 0
KST1 141200Z 16013KT 22/18 A2996 RMK A01 T02240183  RH  080%=      5-min Rain = 0
KST1 141205Z 16013KT 22/18 A2996 RMK A01 T02240183  RH  080%=      5-min Rain = 0
KST1 141210Z 16014KT 22/18 A2996 RMK A01 T02240184  RH  080%=      5-min Rain = 0
KST1 141215Z 16013G18KT 22/18 A2996 RMK A01 T02240183  RH  080%=      5-min Rain = 0
KST1 141220Z 16013KT 22/18 A2996 RMK A01 T02240183  RH  080%=      5-min Rain = 0
KST1 141225Z 16013KT 22/18 A2996 RMK A01 T02240183  RH  080%=      5-min Rain = 0
KST1 141230Z 16015KT 22/18 A2996 RMK A01 T02240183  RH  079%=      5-min Rain = 0
KST1 141235Z 17014KT 23/18 A2997 RMK A01 T02250183  RH  079%=      5-min Rain = 0
KST1 141240Z 17016KT 23/18 A2997 RMK A01 T02250183  RH  079%=      5-min Rain = 0
KST1 141245Z 17014KT 23/18 A2997 RMK A01 T02260183  RH  079%=      5-min Rain = 0
KST1 141250Z 17015KT 23/18 A2997 RMK A01 T02260184  RH  079%=      5-min Rain = 0
KST1 141255Z 16015KT 23/18 A2997 RMK A01 T02270184  RH  079%=      5-min Rain = 0
KST1 141300Z 16016G21KT 23/18 A2997 RMK A01 T02270184  RH  079%=      5-min Rain = 0
KST1 141305Z 16017G22KT 23/18 A2997 RMK A01 T02270183  RH  078%=      5-min Rain = 0
KST1 141310Z 17019KT 23/18 A2997 RMK A01 T02280183  RH  078%=      5-min Rain = 0
KST1 141315Z 17018KT 23/18 A2997 RMK A01 T02280183  RH  078%=      5-min Rain = 0
KST1 141320Z 17017KT 23/18 A2997 RMK A01 T02280183  RH  078%=      5-min Rain = 0
KST1 141325Z 17017G22KT 23/18 A2997 RMK A01 T02280183  RH  078%=      5-min Rain = 0
KST1 141330Z 17018G23KT 23/18 A2997 RMK A01 T02290183  RH  077%=      5-min Rain = 0
KST1 141335Z 17018KT 23/18 A2997 RMK A01 T02300183  RH  077%=      5-min Rain = 0
KST1 141340Z 17019G25KT 23/18 A2997 RMK A01 T02310183  RH  076%=      5-min Rain = 0
KST1 141345Z 17020KT 23/18 A2997 RMK A01 T02320182  RH  076%=      5-min Rain = 0
KST1 141350Z 17019G25KT 24/18 A2997 RMK A01 T02360183  RH  074%=      5-min Rain = 0
KST1 141355Z 17018KT 24/18 A2997 RMK A01 T02390183  RH  073%=      5-min Rain = 0
KST1 141400Z 16019G25KT 24/18 A2997 RMK A01 T02430184  RH  071%=      5-min Rain = 0
KST1 141405Z 17018G23KT 25/18 A2997 RMK A01 T02460184  RH  070%=      5-min Rain = 0
KST1 141410Z 17019KT 25/18 A2998 RMK A01 T02470183  RH  069%=      5-min Rain = 0
KST1 141415Z 17020G26KT 25/18 A2998 RMK A01 T02480181  RH  068%=      5-min Rain = 0
KST1 141420Z 17019G24KT 25/18 A2998 RMK A01 T02510182  RH  067%=      5-min Rain = 0
KST1 141425Z 18018G25KT 25/18 A2998 RMK A01 T02540182  RH  066%=      5-min Rain = 0
KST1 141430Z 18020KT 26/18 A2998 RMK A01 T02560181  RH  065%=      5-min Rain = 0
KST1 141435Z 18018G24KT 25/18 A2998 RMK A01 T02540182  RH  066%=      5-min Rain = 0
KST1 141440Z 18018KT 25/18 A2999 RMK A01 T02510181  RH  067%=      5-min Rain = 0
KST1 141445Z 18017G23KT 25/18 A2999 RMK A01 T02510180  RH  066%=      5-min Rain = 0
KST1 141450Z 18018KT 25/18 A2999 RMK A01 T02510179  RH  066%=      5-min Rain = 0
KST1 141455Z 18016G22KT 25/18 A2999 RMK A01 T02530181  RH  066%=      5-min Rain = 0
KST1 141500Z 18019KT 25/18 A2999 RMK A01 T02530179  RH  065%=      5-min Rain = 0
KST1 141505Z 18017G22KT 25/18 A2999 RMK A01 T02530178  RH  065%=      5-min Rain = 0
KST1 141510Z 17017KT 26/18 A2999 RMK A01 T02550179  RH  064%=      5-min Rain = 0
KST1 141515Z 18016G23KT 26/18 A2999 RMK A01 T02570179  RH  064%=      5-min Rain = 0
KST1 141520Z 19017G23KT 26/18 A2999 RMK A01 T02590178  RH  062%=      5-min Rain = 0
KST1 141525Z 18016G21KT 26/18 A2999 RMK A01 T02620178  RH  062%=      5-min Rain = 0
KST1 141530Z 18017KT 26/18 A2999 RMK A01 T02640178  RH  061%=      5-min Rain = 0
KST1 141535Z 18016KT 27/18 A2999 RMK A01 T02680178  RH  059%=      5-min Rain = 0
KST1 141540Z 19016KT 27/18 A2999 RMK A01 T02700177  RH  058%=      5-min Rain = 0
KST1 141545Z 19014KT 27/18 A2999 RMK A01 T02700177  RH  058%=      5-min Rain = 0
KST1 141550Z 17017KT 27/18 A2999 RMK A01 T02690176  RH  058%=      5-min Rain = 0
KST1 141555Z 19015KT 27/18 A2999 RMK A01 T02670177  RH  059%=      5-min Rain = 0
KST1 141600Z 18015KT 27/18 A2999 RMK A01 T02700176  RH  058%=      5-min Rain = 0
KST1 141605Z 19015G22KT 27/18 A30 RMK A01 T02740177  RH  057%=      5-min Rain = 0
KST1 141610Z 20015G22KT 28/17 A30 RMK A01 T02780174  RH  055%=      5-min Rain = 0
KST1 141615Z 20015KT 28/17 A30 RMK A01 T02820173  RH  053%=      5-min Rain = 0
KST1 141620Z 20013G20KT 29/17 A2999 RMK A01 T02850172  RH  052%=      5-min Rain = 0
KST1 141625Z 19014KT 28/17 A2999 RMK A01 T02830174  RH  053%=      5-min Rain = 0
KST1 141630Z 18015G20KT 28/17 A2999 RMK A01 T02830173  RH  053%=      5-min Rain = 0
KST1 141635Z 21013G18KT 28/17 A2999 RMK A01 T02820172  RH  052%=      5-min Rain = 0
KST1 141640Z 19012KT 28/17 A2999 RMK A01 T02810172  RH  053%=      5-min Rain = 0
KST1 141645Z 20013G20KT 29/17 A2999 RMK A01 T02890171  RH  050%=      5-min Rain = 0
KST1 141650Z 19013G18KT 29/17 A2999 RMK A01 T02860169  RH  050%=      5-min Rain = 0
KST1 141655Z 19013G24KT 29/17 A2999 RMK A01 T02920169  RH  049%=      5-min Rain = 0
KST1 141700Z 21011G19KT 30/16 A2999 RMK A01 T02950161  RH  045%=      5-min Rain = 0
KST1 141705Z 22013G20KT 30/16 A2999 RMK A01 T02950160  RH  045%=      5-min Rain = 0
KST1 141710Z 23009G16KT 30/16 A2999 RMK A01 T02960157  RH  044%=      5-min Rain = 0
KST1 141715Z 24014G21KT 30/15 A2999 RMK A01 T03010147  RH  040%=      5-min Rain = 0
KST1 141720Z 23008KT 30/15 A2999 RMK A01 T03000149  RH  041%=      5-min Rain = 0
KST1 141725Z 21011G18KT 30/16 A2999 RMK A01 T03040156  RH  042%=      5-min Rain = 0
KST1 141730Z 20010G17KT 31/16 A2999 RMK A01 T03050158  RH  042%=      5-min Rain = 0
KST1 141735Z 21009G14KT 30/15 A2998 RMK A01 T03020153  RH  041%=      5-min Rain = 0
KST1 141740Z 22010KT 31/15 A2998 RMK A01 T03050147  RH  039%=      5-min Rain = 0
KST1 141745Z 19009G16KT 30/15 A2998 RMK A01 T03020152  RH  041%=      5-min Rain = 0
KST1 141750Z 21011KT 30/15 A2998 RMK A01 T03030153  RH  041%=      5-min Rain = 0
KST1 141755Z 21009KT 30/15 A2998 RMK A01 T03010150  RH  041%=      5-min Rain = 0
KST1 141800Z 20010KT 30/15 A2997 RMK A01 T03000148  RH  041%=      5-min Rain = 0
KST1 141805Z 20011G17KT 30/15 A2997 RMK A01 T02990148  RH  041%=      5-min Rain = 0
KST1 141810Z 20010G15KT 30/15 A2997 RMK A01 T02990146  RH  040%=      5-min Rain = 0
KST1 141815Z 22012KT 30/15 A2997 RMK A01 T03010145  RH  039%=      5-min Rain = 0
KST1 141820Z 22012G17KT 30/14 A2997 RMK A01 T03040143  RH  038%=      5-min Rain = 0
KST1 141825Z 21011KT 30/14 A2997 RMK A01 T03010141  RH  039%=      5-min Rain = 0
KST1 141830Z 19010KT 30/15 A2997 RMK A01 T03010145  RH  039%=      5-min Rain = 0
KST1 141835Z 20008G15KT 30/15 A2997 RMK A01 T02990145  RH  040%=      5-min Rain = 0
KST1 141840Z 22008KT 30/14 A2996 RMK A01 T03030136  RH  037%=      5-min Rain = 0
KST1 141845Z 21007KT 30/13 A2996 RMK A01 T03010131  RH  036%=      5-min Rain = 0
KST1 141850Z 20008G16KT 31/13 A2996 RMK A01 T03060132  RH  035%=      5-min Rain = 0
KST1 141855Z 22009KT 31/13 A2996 RMK A01 T03060126  RH  034%=      5-min Rain = 0
KST1 141900Z 22008KT 30/12 A2996 RMK A01 T03040122  RH  033%=      5-min Rain = 0
KST1 141905Z 21010KT 31/12 A2996 RMK A01 T03090123  RH  033%=      5-min Rain = 0
KST1 141910Z 21010KT 31/12 A2996 RMK A01 T03070118  RH  032%=      5-min Rain = 0
KST1 141915Z 22010KT 31/12 A2996 RMK A01 T03070116  RH  031%=      5-min Rain = 0
KST1 141920Z 23012KT 31/11 A2996 RMK A01 T03130112  RH  030%=      5-min Rain = 0
KST1 141925Z 23010KT 31/11 A2996 RMK A01 T03130111  RH  029%=      5-min Rain = 0
KST1 141930Z 23011KT 31/11 A2996 RMK A01 T03110109  RH  029%=      5-min Rain = 0
KST1 141935Z 24010KT 31/11 A2996 RMK A01 T03120109  RH  029%=      5-min Rain = 0
KST1 141940Z 23010G16KT 31/11 A2995 RMK A01 T03120106  RH  029%=      5-min Rain = 0
KST1 141945Z 21008G13KT 31/10 A2995 RMK A01 T03100103  RH  028%=      5-min Rain = 0
KST1 141950Z 23009G16KT 31/10 A2995 RMK A01 T03110099  RH  027%=      5-min Rain = 0
KST1 141955Z 23008G14KT 31/09 A2995 RMK A01 T03120088  RH  025%=      5-min Rain = 0
KST1 142000Z 21008KT 31/09 A2994 RMK A01 T03100093  RH  026%=      5-min Rain = 0
KST1 142005Z 24004KT 31/09 A2994 RMK A01 T03070088  RH  026%=      5-min Rain = 0
KST1 142010Z 20007G12KT 31/09 A2994 RMK A01 T03110088  RH  025%=      5-min Rain = 0
KST1 142015Z 21009KT 31/09 A2994 RMK A01 T03130088  RH  025%=      5-min Rain = 0
KST1 142020Z 22007KT 31/08 A2993 RMK A01 T03120084  RH  025%=      5-min Rain = 0
KST1 142025Z 20004KT 31/09 A2993 RMK A01 T03140086  RH  025%=      5-min Rain = 0
KST1 142030Z 22005KT 32/08 A2992 RMK A01 T03220083  RH  023%=      5-min Rain = 0
KST1 142035Z 27005KT 33/08 A2992 RMK A01 T03250079  RH  022%=      5-min Rain = 0
KST1 142040Z 26005KT 33/08 A2992 RMK A01 T03290077  RH  021%=      5-min Rain = 0
KST1 142045Z 26007G12KT 33/07 A2992 RMK A01 T03330073  RH  020%=      5-min Rain = 0
KST1 142050Z 31005G15KT 33/07 A2991 RMK A01 T03260067  RH  020%=      5-min Rain = 0
KST1 142055Z 27005G10KT 33/07 A2991 RMK A01 T03320072  RH  020%=      5-min Rain = 0
KST1 142100Z 23010G15KT 33/07 A2991 RMK A01 T03320072  RH  020%=      5-min Rain = 0
KST1 142105Z 22006KT 32/07 A2991 RMK A01 T03240068  RH  021%=      5-min Rain = 0
KST1 142110Z 24008G13KT 33/07 A299 RMK A01 T03260069  RH  021%=      5-min Rain = 0
KST1 142115Z 25006KT 32/07 A299 RMK A01 T03240070  RH  021%=      5-min Rain = 0
KST1 142120Z 21004G9KT 32/07 A2989 RMK A01 T03230069  RH  021%=      5-min Rain = 0
KST1 142125Z 23007KT 33/07 A2989 RMK A01 T03250069  RH  021%=      5-min Rain = 0
KST1 142130Z 20005KT 33/07 A2989 RMK A01 T03260068  RH  020%=      5-min Rain = 0
KST1 142135Z 22007G12KT 33/07 A2988 RMK A01 T03280066  RH  020%=      5-min Rain = 0
KST1 142140Z 23011KT 33/07 A2988 RMK A01 T03330065  RH  019%=      5-min Rain = 0
KST1 142145Z 25009KT 33/06 A2988 RMK A01 T03330060  RH  018%=      5-min Rain = 0
KST1 142150Z 24007KT 33/06 A2988 RMK A01 T03340059  RH  018%=      5-min Rain = 0
KST1 142155Z 24011KT 34/05 A2988 RMK A01 T03390050  RH  017%=      5-min Rain = 0
KST1 142200Z 25009KT 34/05 A2988 RMK A01 T03350054  RH  018%=      5-min Rain = 0
KST1 142205Z 23006KT 33/05 A2987 RMK A01 T03330054  RH  018%=      5-min Rain = 0
KST1 142210Z 25009G16KT 34/06 A2987 RMK A01 T03360056  RH  018%=      5-min Rain = 0
KST1 142215Z 25012KT 34/05 A2987 RMK A01 T03420054  RH  017%=      5-min Rain = 0
KST1 142220Z 22010G16KT 34/06 A2987 RMK A01 T03410063  RH  018%=      5-min Rain = 0
KST1 142225Z 22010KT 34/07 A2986 RMK A01 T03370065  RH  019%=      5-min Rain = 0
KST1 142230Z 25010G15KT 34/07 A2986 RMK A01 T03400071  RH  019%=      5-min Rain = 0
KST1 142235Z 23009KT 34/08 A2986 RMK A01 T03390084  RH  021%=      5-min Rain = 0
KST1 142240Z 20012G18KT 34/09 A2986 RMK A01 T03380093  RH  023%=      5-min Rain = 0
KST1 142245Z 21009G16KT 34/10 A2986 RMK A01 T03360095  RH  023%=      5-min Rain = 0
KST1 142250Z 20010KT 34/10 A2986 RMK A01 T03360097  RH  024%=      5-min Rain = 0
KST1 142255Z 21012G17KT 34/10 A2986 RMK A01 T03350097  RH  024%=      5-min Rain = 0
KST1 142300Z 23012G18KT 34/10 A2986 RMK A01 T03390101  RH  024%=      5-min Rain = 0
KST1 142305Z 21013KT 34/10 A2986 RMK A01 T03380095  RH  023%=      5-min Rain = 0
KST1 142310Z 21011G17KT 34/10 A2986 RMK A01 T03350095  RH  023%=      5-min Rain = 0
KST1 142315Z 22011KT 34/09 A2986 RMK A01 T03370091  RH  022%=      5-min Rain = 0
KST1 142320Z 21010G18KT 33/10 A2985 RMK A01 T03330102  RH  025%=      5-min Rain = 0
KST1 142325Z 23015KT 34/10 A2985 RMK A01 T03380099  RH  024%=      5-min Rain = 0
KST1 142330Z 23016KT 34/09 A2985 RMK A01 T03360094  RH  023%=      5-min Rain = 0
KST1 142335Z 23015G20KT 34/09 A2985 RMK A01 T03370090  RH  022%=      5-min Rain = 0
KST1 142340Z 23015KT 34/09 A2984 RMK A01 T03350087  RH  022%=      5-min Rain = 0
KST1 142345Z 23016KT 33/09 A2984 RMK A01 T03330086  RH  022%=      5-min Rain = 0
KST1 142350Z 22017KT 33/08 A2984 RMK A01 T03340082  RH  022%=      5-min Rain = 0
KST1 142355Z 23018KT 33/07 A2984 RMK A01 T03320068  RH  020%=      5-min Rain = 0
KST1 150000Z 22017KT 33/05 A2984 RMK A01 T03310050  RH  017%=      5-min Rain = 0
KST1 150005Z 22015KT 33/07 A2985 RMK A01 T03320072  RH  020%=      5-min Rain = 0
KST1 150010Z 22017KT 33/09 A2985 RMK A01 T03290087  RH  023%=      5-min Rain = 0
KST1 150015Z 21018G24KT 33/09 A2985 RMK A01 T03250088  RH  023%=      5-min Rain = 0
KST1 150020Z 21018G23KT 32/08 A2985 RMK A01 T03220081  RH  023%=      5-min Rain = 0
KST1 150025Z 20013KT 32/08 A2985 RMK A01 T03210084  RH  023%=      5-min Rain = 0
KST1 150030Z 21015G20KT 32/09 A2986 RMK A01 T03200091  RH  025%=      5-min Rain = 0
KST1 150035Z 21015G20KT 32/09 A2986 RMK A01 T03170090  RH  025%=      5-min Rain = 0
KST1 150040Z 21016KT 32/08 A2986 RMK A01 T03160083  RH  024%=      5-min Rain = 0
KST1 150045Z 21014KT 31/09 A2986 RMK A01 T03140091  RH  025%=      5-min Rain = 0
KST1 150050Z 20012KT 31/10 A2987 RMK A01 T03120096  RH  027%=      5-min Rain = 0
KST1 150055Z 19015G22KT 31/13 A2988 RMK A01 T03080129  RH  034%=      5-min Rain = 0
KST1 150100Z 18020KT 30/16 A2988 RMK A01 T03000161  RH  044%=      5-min Rain = 0
KST1 150105Z 14017KT 29/16 A299 RMK A01 T02930159  RH  046%=      5-min Rain = 0
KST1 150110Z 12015KT 26/15 A299 RMK A01 T02610153  RH  053%=      5-min Rain = 0
KST1 150115Z 12016G25KT 27/16 A299 RMK A01 T02650158  RH  053%=      5-min Rain = 0
KST1 150120Z 12016G22KT 27/16 A2991 RMK A01 T02700163  RH  053%=      5-min Rain = 0
KST1 150125Z 12017KT 27/16 A2991 RMK A01 T02650163  RH  054%=      5-min Rain = 0
KST1 150130Z 12018G24KT 26/17 A2991 RMK A01 T02640165  RH  056%=      5-min Rain = 0
KST1 150135Z 13016G23KT 26/17 A2991 RMK A01 T02630165  RH  056%=      5-min Rain = 0
KST1 150140Z 12019KT 26/17 A2991 RMK A01 T02590167  RH  058%=      5-min Rain = 0
KST1 150145Z 13020G25KT 26/17 A2991 RMK A01 T02550166  RH  059%=      5-min Rain = 0
KST1 150150Z 13020G26KT 26/17 A2992 RMK A01 T02580171  RH  060%=      5-min Rain = 0
KST1 150155Z 12022KT 25/17 A2992 RMK A01 T02510166  RH  061%=      5-min Rain = 0
KST1 150200Z 12019KT 24/16 A2993 RMK A01 T02420156  RH  060%=      5-min Rain = 0
KST1 150205Z 12018G23KT 24/15 A2993 RMK A01 T02370154  RH  061%=      5-min Rain = 0
KST1 150210Z 12018KT 24/15 A2993 RMK A01 T02360153  RH  061%=      5-min Rain = 0
KST1 150215Z 13017KT 24/15 A2992 RMK A01 T02350151  RH  061%=      5-min Rain = 0
KST1 150220Z 13017KT 24/15 A2992 RMK A01 T02350152  RH  061%=      5-min Rain = 0
KST1 150225Z 13016KT 24/15 A2992 RMK A01 T02350153  RH  061%=      5-min Rain = 0
KST1 150230Z 13015KT 24/16 A2992 RMK A01 T02350155  RH  062%=      5-min Rain = 0
KST1 150235Z 13015KT 24/16 A2993 RMK A01 T02350155  RH  062%=      5-min Rain = 0
KST1 150240Z 14015KT 23/15 A2993 RMK A01 T02340153  RH  062%=      5-min Rain = 0
KST1 150245Z 14015KT 23/15 A2993 RMK A01 T02330153  RH  062%=      5-min Rain = 0
KST1 150250Z 14017KT 23/15 A2994 RMK A01 T02330153  RH  062%=      5-min Rain = 0
KST1 150255Z 14018KT 23/15 A2994 RMK A01 T02320151  RH  062%=      5-min Rain = 0
KST1 150300Z 14017KT 23/15 A2993 RMK A01 T02300150  RH  062%=      5-min Rain = 0
KST1 150305Z 14017KT 23/15 A2993 RMK A01 T02300151  RH  062%=      5-min Rain = 0
KST1 150310Z 14016KT 23/15 A2993 RMK A01 T02300150  RH  062%=      5-min Rain = 0
KST1 150315Z 14016KT 23/15 A2994 RMK A01 T02290149  RH  062%=      5-min Rain = 0
KST1 150320Z 14015KT 23/15 A2994 RMK A01 T02280147  RH  061%=      5-min Rain = 0
KST1 150325Z 14015G20KT 23/14 A2994 RMK A01 T02280144  RH  060%=      5-min Rain = 0
KST1 150330Z 14014KT 23/14 A2995 RMK A01 T02260138  RH  059%=      5-min Rain = 0
KST1 150335Z 14013G18KT 23/13 A2995 RMK A01 T02250133  RH  057%=      5-min Rain = 0
KST1 150340Z 13013KT 22/13 A2995 RMK A01 T02240133  RH  057%=      5-min Rain = 0
KST1 150345Z 13013KT 22/13 A2995 RMK A01 T02220133  RH  058%=      5-min Rain = 0
KST1 150350Z 14012KT 22/13 A2995 RMK A01 T02210134  RH  059%=      5-min Rain = 0
KST1 150355Z 14012KT 22/14 A2996 RMK A01 T02210136  RH  060%=      5-min Rain = 0
KST1 150400Z 13013KT 22/14 A2996 RMK A01 T02220138  RH  060%=      5-min Rain = 0
KST1 150405Z 14013KT 22/14 A2996 RMK A01 T02210135  RH  059%=      5-min Rain = 0
KST1 150410Z 14013KT 22/13 A2996 RMK A01 T02200132  RH  059%=      5-min Rain = 0
KST1 150415Z 14013KT 22/13 A2996 RMK A01 T02180131  RH  059%=      5-min Rain = 0
KST1 150420Z 14014KT 22/13 A2996 RMK A01 T02180130  RH  059%=      5-min Rain = 0
KST1 150425Z 13014KT 22/13 A2996 RMK A01 T02170130  RH  059%=      5-min Rain = 0
KST1 150430Z 14013KT 22/13 A2997 RMK A01 T02160131  RH  060%=      5-min Rain = 0
KST1 150435Z 14013KT 22/13 A2997 RMK A01 T02150132  RH  060%=      5-min Rain = 0
KST1 150440Z 14013KT 22/13 A2997 RMK A01 T02150133  RH  061%=      5-min Rain = 0
KST1 150445Z 14013KT 21/13 A2996 RMK A01 T02140134  RH  062%=      5-min Rain = 0
KST1 150450Z 14013KT 21/14 A2997 RMK A01 T02140137  RH  063%=      5-min Rain = 0
KST1 150455Z 14013KT 22/14 A2997 RMK A01 T02150140  RH  064%=      5-min Rain = 0

Page generated in 0.0222 seconds.